createdAt,value
2022-12-16T00:01:22.866Z,-1.28
2022-12-16T00:03:54.994Z,-1.37
2022-12-16T00:06:25.085Z,-1.41
2022-12-16T00:08:53.136Z,-1.45
2022-12-16T00:11:21.864Z,-1.38
2022-12-16T00:13:50.077Z,-1.38
2022-12-16T00:16:21.203Z,-1.46
2022-12-16T00:18:49.408Z,-1.54
2022-12-16T00:21:20.067Z,-1.50
2022-12-16T00:23:48.215Z,-1.51
2022-12-16T00:26:16.139Z,-1.40
2022-12-16T00:28:44.291Z,-1.34
2022-12-16T00:31:12.727Z,-1.39
2022-12-16T00:33:42.387Z,-1.50
2022-12-16T00:36:10.861Z,-1.42
2022-12-16T00:38:39.352Z,-1.47
2022-12-16T00:41:07.268Z,-1.49
2022-12-16T00:43:36.291Z,-1.36
2022-12-16T00:46:04.596Z,-1.37
2022-12-16T00:48:32.569Z,-1.35
2022-12-16T00:51:02.119Z,-1.41
2022-12-16T00:53:30.243Z,-1.36
2022-12-16T00:56:09.384Z,-1.30
2022-12-16T00:58:38.069Z,-1.33
2022-12-16T01:01:06.732Z,-1.30
2022-12-16T01:03:35.997Z,-1.51
2022-12-16T01:06:11.127Z,-1.70
2022-12-16T01:08:39.646Z,-1.71
2022-12-16T01:11:08.053Z,-1.73
2022-12-16T01:13:36.704Z,-1.83
2022-12-16T01:16:04.869Z,-1.72
2022-12-16T01:18:32.860Z,-1.86
2022-12-16T01:21:03.957Z,-1.81
2022-12-16T01:23:33.911Z,-1.64
2022-12-16T01:26:03.296Z,-1.72
2022-12-16T01:28:31.677Z,-1.66
2022-12-16T01:31:02.520Z,-1.61
2022-12-16T01:33:31.651Z,-1.65
2022-12-16T01:36:01.493Z,-1.64
2022-12-16T01:38:29.597Z,-1.71
2022-12-16T01:40:59.033Z,-1.75
2022-12-16T01:43:29.462Z,-1.73
2022-12-16T01:46:01.525Z,-1.56
2022-12-16T01:48:38.711Z,-1.64
2022-12-16T01:51:09.359Z,-1.84
2022-12-16T01:53:40.696Z,-1.83
2022-12-16T01:56:13.830Z,-1.79
2022-12-16T01:58:43.605Z,-1.67
2022-12-16T02:01:11.596Z,-1.95
2022-12-16T02:03:39.865Z,-1.72
2022-12-16T02:06:08.543Z,-1.77
2022-12-16T02:08:36.702Z,-1.72
2022-12-16T02:11:30.213Z,-1.84
2022-12-16T02:14:14.326Z,-1.65
2022-12-16T02:16:54.051Z,-1.71
2022-12-16T02:20:03.859Z,-1.68
2022-12-16T02:22:46.040Z,-1.91
2022-12-16T02:25:47.274Z,-1.85
2022-12-16T02:28:26.359Z,-1.82
2022-12-16T02:31:10.898Z,-1.72
2022-12-16T02:34:07.918Z,-1.93
2022-12-16T02:36:52.899Z,-1.98
2022-12-16T02:39:23.608Z,-2.22
2022-12-16T02:41:58.571Z,-2.04
2022-12-16T02:44:36.723Z,-1.97
2022-12-16T02:47:06.021Z,-2.09
2022-12-16T02:49:47.566Z,-2.06
2022-12-16T02:52:16.590Z,-1.89
2022-12-16T02:54:45.881Z,-1.90
2022-12-16T02:57:37.552Z,-2.07
2022-12-16T03:00:08.331Z,-1.96
2022-12-16T03:02:45.062Z,-1.90
2022-12-16T03:05:19.018Z,-2.21
2022-12-16T03:07:50.036Z,-2.22
2022-12-16T03:10:21.485Z,-2.17
2022-12-16T03:12:49.366Z,-2.23
2022-12-16T03:15:21.542Z,-2.02
2022-12-16T03:17:53.902Z,-2.24
2022-12-16T03:20:26.434Z,-1.96
2022-12-16T03:22:57.043Z,-1.99
2022-12-16T03:25:26.702Z,-2.14
2022-12-16T03:27:59.057Z,-1.97
2022-12-16T03:30:30.874Z,-2.01
2022-12-16T03:33:04.980Z,-1.95
2022-12-16T03:35:38.213Z,-2.21
2022-12-16T03:38:09.935Z,-1.97
2022-12-16T03:40:40.067Z,-2.12
2022-12-16T03:43:09.066Z,-1.98
2022-12-16T03:45:39.543Z,-1.86
2022-12-16T03:48:13.248Z,-1.79
2022-12-16T03:50:41.690Z,-1.74
2022-12-16T03:53:09.986Z,-1.77
2022-12-16T03:55:37.891Z,-1.71
2022-12-16T03:58:05.803Z,-1.82
2022-12-16T04:00:33.809Z,-1.77
2022-12-16T04:03:01.954Z,-1.76
2022-12-16T04:05:31.346Z,-1.80
2022-12-16T04:08:02.247Z,-1.79
2022-12-16T04:10:48.220Z,-1.81
2022-12-16T04:13:34.130Z,-1.86
2022-12-16T04:16:20.201Z,-1.86
2022-12-16T04:19:06.332Z,-1.87
2022-12-16T04:21:53.285Z,-1.86
2022-12-16T04:24:28.302Z,-1.86
2022-12-16T04:27:15.888Z,-2.00
2022-12-16T04:29:58.233Z,-2.01
2022-12-16T04:32:26.663Z,-2.03
2022-12-16T04:34:53.577Z,-2.06
2022-12-16T04:37:40.408Z,-2.01
2022-12-16T04:40:26.650Z,-1.91
2022-12-16T04:43:12.205Z,-1.93
2022-12-16T04:45:58.217Z,-1.93
2022-12-16T04:48:43.407Z,-2.05
2022-12-16T04:51:28.796Z,-1.97
2022-12-16T04:54:15.801Z,-2.18
2022-12-16T04:57:01.126Z,-1.98
2022-12-16T04:59:46.559Z,-1.88
2022-12-16T05:02:31.863Z,-1.95
2022-12-16T05:05:17.286Z,-1.86
2022-12-16T05:08:02.469Z,-1.77
2022-12-16T05:10:49.043Z,-1.73
2022-12-16T05:13:48.716Z,-1.85
2022-12-16T05:16:34.437Z,-1.88
2022-12-16T05:19:19.841Z,-1.85
2022-12-16T05:22:05.247Z,-1.90
2022-12-16T05:24:53.008Z,-1.89
2022-12-16T05:27:39.867Z,-1.78
2022-12-16T05:30:30.535Z,-1.90
2022-12-16T05:33:19.252Z,-1.93
2022-12-16T05:36:04.924Z,-1.80
2022-12-16T05:38:50.215Z,-1.85
2022-12-16T05:41:35.349Z,-1.91
2022-12-16T05:44:22.283Z,-1.85
2022-12-16T05:47:07.554Z,-1.97
2022-12-16T05:49:53.140Z,-1.94
2022-12-16T05:52:38.944Z,-1.88
2022-12-16T05:55:27.893Z,-1.95
2022-12-16T05:58:17.400Z,-1.87
2022-12-16T06:01:04.443Z,-1.85
2022-12-16T06:03:49.854Z,-2.02
2022-12-16T06:06:35.109Z,-1.85
2022-12-16T06:09:20.541Z,-1.72
2022-12-16T06:12:06.208Z,-1.77
2022-12-16T06:14:51.285Z,-1.79
2022-12-16T06:17:37.789Z,-1.79
2022-12-16T06:20:24.463Z,-1.74
2022-12-16T06:23:10.808Z,-1.66
2022-12-16T06:26:07.863Z,-1.61
2022-12-16T06:28:53.229Z,-1.65
2022-12-16T06:31:39.169Z,-1.67
2022-12-16T06:34:25.704Z,-1.71
2022-12-16T06:37:11.531Z,-1.77
2022-12-16T06:39:56.651Z,-1.82
2022-12-16T06:42:41.914Z,-1.91
2022-12-16T06:45:32.859Z,-1.82
2022-12-16T06:48:19.729Z,-1.77
2022-12-16T06:51:06.431Z,-1.72
2022-12-16T06:53:51.654Z,-1.84
2022-12-16T06:56:37.102Z,-1.71
2022-12-16T06:59:22.695Z,-1.72
2022-12-16T07:02:08.261Z,-1.64
2022-12-16T07:04:53.825Z,-1.54
2022-12-16T07:07:40.284Z,-1.41
2022-12-16T07:10:25.907Z,-1.45
2022-12-16T07:13:11.492Z,-1.44
2022-12-16T07:15:56.778Z,-1.46
2022-12-16T07:18:42.054Z,-1.38
2022-12-16T07:21:27.377Z,-1.44
2022-12-16T07:24:13.924Z,-1.40
2022-12-16T07:26:59.191Z,-1.43
2022-12-16T07:29:44.415Z,-1.37
2022-12-16T07:32:29.732Z,-1.37
2022-12-16T07:35:14.959Z,-1.35
2022-12-16T07:37:59.997Z,-1.37
2022-12-16T07:40:46.636Z,-1.28
2022-12-16T07:43:32.321Z,-1.36
2022-12-16T07:46:17.998Z,-1.32
2022-12-16T07:49:08.935Z,-1.24
2022-12-16T07:51:54.266Z,-1.25
2022-12-16T07:54:41.029Z,-1.17
2022-12-16T07:57:27.833Z,-1.11
2022-12-16T08:00:13.550Z,-1.05
2022-12-16T08:02:58.814Z,-1.10
2022-12-16T08:05:44.155Z,-0.96
2022-12-16T08:08:29.709Z,-0.95
2022-12-16T08:11:15.016Z,-1.01
2022-12-16T08:14:01.910Z,-0.92
2022-12-16T08:16:47.158Z,-0.93
2022-12-16T08:19:32.431Z,-0.95
2022-12-16T08:22:17.507Z,-1.07
2022-12-16T08:25:02.875Z,-1.21
2022-12-16T08:27:48.493Z,-0.86
2022-12-16T08:30:35.311Z,-0.68
2022-12-16T08:33:20.738Z,-0.71
2022-12-16T08:36:06.446Z,-0.62
2022-12-16T08:38:51.552Z,-0.79
2022-12-16T08:41:36.931Z,-0.66
2022-12-16T08:44:21.991Z,-0.63
2022-12-16T08:47:08.654Z,-0.51
2022-12-16T08:49:56.235Z,-0.32
2022-12-16T08:52:45.072Z,-0.46
2022-12-16T08:55:30.361Z,-0.12
2022-12-16T08:58:15.978Z,0.00
2022-12-16T09:01:06.647Z,-0.11
2022-12-16T09:03:54.058Z,0.12
2022-12-16T09:06:40.890Z,0.24
2022-12-16T09:09:27.180Z,0.45
2022-12-16T09:12:12.878Z,0.35
2022-12-16T09:14:58.528Z,0.72
2022-12-16T09:17:43.693Z,0.81
2022-12-16T09:20:30.731Z,0.64
2022-12-16T09:23:20.652Z,0.65
2022-12-16T09:26:05.796Z,0.93
2022-12-16T09:28:51.073Z,1.05
2022-12-16T09:31:37.098Z,0.84
2022-12-16T09:34:22.347Z,0.96
2022-12-16T09:37:09.437Z,0.66
2022-12-16T09:39:54.597Z,1.11
2022-12-16T09:42:56.103Z,0.99
2022-12-16T09:45:48.492Z,1.27
2022-12-16T09:48:42.748Z,1.04
2022-12-16T09:51:30.089Z,1.35
2022-12-16T09:54:18.870Z,1.17
2022-12-16T09:57:04.854Z,1.59
2022-12-16T09:59:55.072Z,1.52
2022-12-16T10:02:40.836Z,1.30
2022-12-16T10:05:30.085Z,1.65
2022-12-16T10:08:28.052Z,1.65
2022-12-16T10:11:22.445Z,1.67
2022-12-16T10:14:19.392Z,1.87
2022-12-16T10:17:14.730Z,1.70
2022-12-16T10:20:10.782Z,1.86
2022-12-16T10:23:02.175Z,2.06
2022-12-16T10:25:53.758Z,2.34
2022-12-16T10:28:53.676Z,2.32
2022-12-16T10:31:41.051Z,1.89
2022-12-16T10:34:32.351Z,2.04
2022-12-16T10:37:21.086Z,2.13
2022-12-16T10:40:24.745Z,1.81
2022-12-16T10:43:31.163Z,2.15
2022-12-16T10:46:20.565Z,2.32
2022-12-16T10:49:06.112Z,2.45
2022-12-16T10:51:51.803Z,2.44
2022-12-16T10:54:53.793Z,2.65
2022-12-16T10:57:52.072Z,2.69
2022-12-16T11:00:39.916Z,2.67
2022-12-16T11:03:38.298Z,2.67
2022-12-16T11:06:25.275Z,2.51
2022-12-16T11:09:25.473Z,2.30
2022-12-16T11:12:11.183Z,2.10
2022-12-16T11:15:27.523Z,2.23
2022-12-16T11:18:20.640Z,2.32
2022-12-16T11:21:23.361Z,2.58
2022-12-16T11:24:24.897Z,2.51
2022-12-16T11:27:15.920Z,2.74
2022-12-16T11:30:12.316Z,2.43
2022-12-16T11:33:02.209Z,2.50
2022-12-16T11:35:51.533Z,2.54
2022-12-16T11:38:46.141Z,2.58
2022-12-16T11:41:42.054Z,2.53
2022-12-16T11:44:36.058Z,2.67
2022-12-16T11:47:23.828Z,2.68
2022-12-16T11:50:10.167Z,2.32
2022-12-16T11:53:07.599Z,2.47
2022-12-16T11:56:06.552Z,2.59
2022-12-16T11:59:01.392Z,2.59
2022-12-16T12:01:52.729Z,2.80
2022-12-16T12:04:41.121Z,2.60
2022-12-16T12:07:44.588Z,2.86
2022-12-16T12:11:11.208Z,3.00
2022-12-16T12:14:19.756Z,3.04
2022-12-16T12:17:19.005Z,2.86
2022-12-16T12:20:17.271Z,2.90
2022-12-16T12:23:02.810Z,2.78
2022-12-16T12:25:56.874Z,2.89
2022-12-16T12:28:54.608Z,2.73
2022-12-16T12:31:51.912Z,2.44
2022-12-16T12:34:46.774Z,2.73
2022-12-16T12:37:41.706Z,2.75
2022-12-16T12:40:42.171Z,2.86
2022-12-16T12:43:42.921Z,2.96
2022-12-16T12:46:40.670Z,2.76
2022-12-16T12:49:37.726Z,2.94
2022-12-16T12:52:29.555Z,2.81
2022-12-16T12:55:22.924Z,2.90
2022-12-16T12:58:09.815Z,2.89
2022-12-16T13:01:05.840Z,2.98
2022-12-16T13:03:56.716Z,2.85
2022-12-16T13:06:44.392Z,2.90
2022-12-16T13:09:49.291Z,3.02
2022-12-16T13:12:55.296Z,2.82
2022-12-16T13:15:54.026Z,2.85
2022-12-16T13:18:45.039Z,3.07
2022-12-16T13:22:09.195Z,2.95
2022-12-16T13:24:57.125Z,2.80
2022-12-16T13:27:43.794Z,2.96
2022-12-16T13:30:43.322Z,3.06
2022-12-16T13:33:44.426Z,2.90
2022-12-16T13:36:32.854Z,2.62
2022-12-16T13:39:38.845Z,2.92
2022-12-16T13:42:36.180Z,2.80
2022-12-16T13:45:35.722Z,2.87
2022-12-16T13:48:23.828Z,2.62
2022-12-16T13:51:18.080Z,2.64
2022-12-16T13:54:08.185Z,2.95
2022-12-16T13:56:59.120Z,2.79
2022-12-16T14:00:00.386Z,2.80
2022-12-16T14:02:50.332Z,2.88
2022-12-16T14:05:38.621Z,2.88
2022-12-16T14:08:44.474Z,3.04
2022-12-16T14:11:37.342Z,2.74
2022-12-16T14:14:32.773Z,2.76
2022-12-16T14:17:21.302Z,2.74
2022-12-16T14:20:18.565Z,2.68
2022-12-16T14:23:17.979Z,2.69
2022-12-16T14:26:16.135Z,2.95
2022-12-16T14:29:04.985Z,2.58
2022-12-16T14:31:55.622Z,2.95
2022-12-16T14:34:44.936Z,2.73
2022-12-16T14:37:35.241Z,2.97
2022-12-16T14:40:21.605Z,2.71
2022-12-16T14:43:13.002Z,2.53
2022-12-16T14:46:07.197Z,2.47
2022-12-16T14:48:57.030Z,2.65
2022-12-16T14:51:45.547Z,2.79
2022-12-16T14:54:40.350Z,2.41
2022-12-16T14:57:31.143Z,2.41
2022-12-16T15:00:31.311Z,2.46
2022-12-16T15:03:22.135Z,2.46
2022-12-16T15:06:06.122Z,2.14
2022-12-16T15:08:55.070Z,2.48
2022-12-16T15:11:43.419Z,2.37
2022-12-16T15:14:31.522Z,2.64
2022-12-16T15:17:17.294Z,2.17
2022-12-16T15:20:06.589Z,2.41
2022-12-16T15:22:53.587Z,2.50
2022-12-16T15:25:40.966Z,2.60
2022-12-16T15:28:42.799Z,2.22
2022-12-16T15:31:32.704Z,2.14
2022-12-16T15:34:35.968Z,2.40
2022-12-16T15:37:32.687Z,2.29
2022-12-16T15:40:19.346Z,2.21
2022-12-16T15:43:09.899Z,2.41
2022-12-16T15:45:55.876Z,2.36
2022-12-16T15:48:44.807Z,2.22
2022-12-16T15:51:41.820Z,2.37
2022-12-16T15:54:38.986Z,2.25
2022-12-16T15:57:44.153Z,2.24
2022-12-16T16:00:38.819Z,2.49
2022-12-16T16:03:37.241Z,2.25
2022-12-16T16:06:23.560Z,2.35
2022-12-16T16:09:09.722Z,2.63
2022-12-16T16:11:55.558Z,2.65
2022-12-16T16:14:42.315Z,2.58
2022-12-16T16:17:39.723Z,2.34
2022-12-16T16:20:31.935Z,2.37
2022-12-16T16:23:17.396Z,2.16
2022-12-16T16:26:04.158Z,2.45
2022-12-16T16:28:49.662Z,2.37
2022-12-16T16:31:36.611Z,2.52
2022-12-16T16:34:22.963Z,2.54
2022-12-16T16:37:12.331Z,2.40
2022-12-16T16:39:59.109Z,2.36
2022-12-16T16:42:45.035Z,2.16
2022-12-16T16:45:30.394Z,2.16
2022-12-16T16:48:24.206Z,2.17
2022-12-16T16:51:09.682Z,2.22
2022-12-16T16:53:55.021Z,2.21
2022-12-16T16:56:40.208Z,2.28
2022-12-16T16:59:25.568Z,2.43
2022-12-16T17:02:10.739Z,2.37
2022-12-16T17:04:57.707Z,2.28
2022-12-16T17:07:42.987Z,2.30
2022-12-16T17:10:28.799Z,2.36
2022-12-16T17:13:13.934Z,2.25
2022-12-16T17:15:59.525Z,2.42
2022-12-16T17:18:48.992Z,2.36
2022-12-16T17:21:39.004Z,2.41
2022-12-16T17:24:24.925Z,2.51
2022-12-16T17:27:10.343Z,2.26
2022-12-16T17:29:55.426Z,2.22
2022-12-16T17:32:40.736Z,2.27
2022-12-16T17:35:28.132Z,2.12
2022-12-16T17:38:14.689Z,2.18
2022-12-16T17:40:59.903Z,2.42
2022-12-16T17:43:44.967Z,2.32
2022-12-16T17:46:30.859Z,2.16
2022-12-16T17:49:17.834Z,2.25
2022-12-16T17:52:03.080Z,2.26
2022-12-16T17:54:50.029Z,2.10
2022-12-16T17:57:35.715Z,2.23
2022-12-16T18:00:21.872Z,2.33
2022-12-16T18:03:07.296Z,2.33
2022-12-16T18:05:52.974Z,2.44
2022-12-16T18:08:38.276Z,2.21
2022-12-16T18:11:38.925Z,2.23
2022-12-16T18:14:24.683Z,2.32
2022-12-16T18:17:24.759Z,2.39
2022-12-16T18:20:10.243Z,2.50
2022-12-16T18:22:55.742Z,2.26
2022-12-16T18:25:41.345Z,2.44
2022-12-16T18:28:27.862Z,2.09
2022-12-16T18:31:13.402Z,1.83
2022-12-16T18:33:59.142Z,1.85
2022-12-16T18:36:44.807Z,2.05
2022-12-16T18:39:30.195Z,1.96
2022-12-16T18:42:15.497Z,2.32
2022-12-16T18:45:02.312Z,2.23
2022-12-16T18:47:44.107Z,1.97
2022-12-16T18:50:35.789Z,1.96
2022-12-16T18:53:23.106Z,1.86
2022-12-16T18:56:17.918Z,2.06
2022-12-16T18:59:03.291Z,2.06
2022-12-16T19:01:50.089Z,1.77
2022-12-16T19:04:35.687Z,2.17
2022-12-16T19:07:20.957Z,1.90
2022-12-16T19:10:06.220Z,2.18
2022-12-16T19:12:52.092Z,2.30
2022-12-16T19:15:41.179Z,2.35
2022-12-16T19:18:30.459Z,2.46
2022-12-16T19:21:16.172Z,2.49
2022-12-16T19:24:01.864Z,2.51
2022-12-16T19:26:47.072Z,2.54
2022-12-16T19:29:32.465Z,2.38
2022-12-16T19:32:17.694Z,2.48
2022-12-16T19:35:04.185Z,2.28
2022-12-16T19:37:49.443Z,2.04
2022-12-16T19:40:35.217Z,2.28
2022-12-16T19:43:20.519Z,2.39
2022-12-16T19:46:11.376Z,2.54
2022-12-16T19:48:56.475Z,2.47
2022-12-16T19:51:43.768Z,2.61
2022-12-16T19:54:29.275Z,2.62
2022-12-16T19:57:14.711Z,2.62
2022-12-16T19:59:59.920Z,2.60
2022-12-16T20:02:45.395Z,2.04
2022-12-16T20:05:30.977Z,2.14
2022-12-16T20:08:17.826Z,2.18
2022-12-16T20:11:02.987Z,2.02
2022-12-16T20:13:48.373Z,2.07
2022-12-16T20:16:38.897Z,1.66
2022-12-16T20:19:24.349Z,1.78
2022-12-16T20:25:17.066Z,2.14
2022-12-16T20:28:02.261Z,2.27
2022-12-16T20:30:47.626Z,2.17
2022-12-16T20:33:34.498Z,1.89
2022-12-16T20:36:21.797Z,1.83
2022-12-16T20:39:08.668Z,2.32
2022-12-16T20:42:07.294Z,2.35
2022-12-16T20:44:52.808Z,1.95
2022-12-16T20:47:41.735Z,2.20
2022-12-16T20:50:27.482Z,2.27
2022-12-16T20:53:12.766Z,2.31
2022-12-16T20:55:58.197Z,2.44
2022-12-16T20:58:44.608Z,2.27
2022-12-16T21:01:29.854Z,2.23
2022-12-16T21:04:15.444Z,1.97
2022-12-16T21:07:00.546Z,2.08
2022-12-16T21:09:54.681Z,2.32
2022-12-16T21:12:41.501Z,2.13
2022-12-16T21:15:28.835Z,2.24
2022-12-16T21:18:18.221Z,2.17
2022-12-16T21:21:03.630Z,2.38
2022-12-16T21:23:49.023Z,1.94
2022-12-16T21:26:34.171Z,1.86
2022-12-16T21:29:19.660Z,2.06
2022-12-16T21:32:06.478Z,2.23
2022-12-16T21:34:51.918Z,1.83
2022-12-16T21:37:37.625Z,1.99
2022-12-16T21:40:23.867Z,2.11
2022-12-16T21:43:09.502Z,2.04
2022-12-16T21:45:56.233Z,1.77
2022-12-16T21:48:48.228Z,2.06
2022-12-16T21:51:32.885Z,2.03
2022-12-16T21:54:18.342Z,1.88
2022-12-16T21:57:03.405Z,2.22
2022-12-16T21:59:48.584Z,2.16
2022-12-16T22:02:33.959Z,2.15
2022-12-16T22:05:20.623Z,2.32
2022-12-16T22:08:05.969Z,2.11
2022-12-16T22:10:51.485Z,2.18
2022-12-16T22:13:37.410Z,2.08
2022-12-16T22:16:23.543Z,2.13
2022-12-16T22:19:08.325Z,2.29
2022-12-16T22:21:56.340Z,2.47
2022-12-16T22:24:41.833Z,2.31
2022-12-16T22:27:27.094Z,2.34
2022-12-16T22:30:12.314Z,2.24
2022-12-16T22:32:57.705Z,2.10
2022-12-16T22:35:43.001Z,2.42
2022-12-16T22:38:29.534Z,2.22
2022-12-16T22:41:15.148Z,2.50
2022-12-16T22:44:00.394Z,2.54
2022-12-16T22:46:45.790Z,2.60
2022-12-16T22:49:31.285Z,2.22
2022-12-16T22:52:16.489Z,2.23
2022-12-16T22:55:03.558Z,2.06
2022-12-16T22:57:50.961Z,2.14
2022-12-16T23:00:39.427Z,2.15
2022-12-16T23:03:24.828Z,2.24
2022-12-16T23:06:09.967Z,2.34
2022-12-16T23:08:55.341Z,2.62
2022-12-16T23:11:51.349Z,2.68
2022-12-16T23:14:42.634Z,2.44
2022-12-16T23:17:28.635Z,2.50
2022-12-16T23:20:14.269Z,2.31
2022-12-16T23:23:00.809Z,2.32
2022-12-16T23:25:46.351Z,2.32
2022-12-16T23:28:32.990Z,2.09
2022-12-16T23:31:18.157Z,2.18
2022-12-16T23:34:03.433Z,2.26
2022-12-16T23:36:48.571Z,2.47
2022-12-16T23:39:33.790Z,2.58
2022-12-16T23:42:18.934Z,2.28
2022-12-16T23:45:05.803Z,2.54
2022-12-16T23:47:51.023Z,2.75
2022-12-16T23:50:37.290Z,2.78
2022-12-16T23:53:23.174Z,2.79
2022-12-16T23:56:08.618Z,2.85
2022-12-16T23:58:54.210Z,2.69
